Time;durP1;ratioP1;P1;durP2;ratioP2;P2;SDS_P1;SDS_P2;PMS_P1;PMS_P2;Temp;Humidity;BMP_temperature;BMP_pressure;BME280_temperature;BME280_humidity;BME280_pressure;Samples;Min_cycle;Max_cycle;Signal;HPM_P1;HPM_P2
2023/03/12 00:02:20;;;;;;;11.52;7.15;;;-1.20;99.90;;;;;;4706623;28;10000448;-70
2023/03/12 00:04:48;;;;;;;11.45;7.03;;;-1.20;99.90;;;;;;5054071;28;20064;-70
2023/03/12 00:07:18;;;;;;;15.07;7.97;;;-1.10;99.90;;;;;;5048867;28;20056;-70
2023/03/12 00:09:46;;;;;;;11.48;6.97;;;-1.10;99.90;;;;;;5047208;28;20043;-70
2023/03/12 00:12:11;;;;;;;11.65;7.13;;;-1.10;99.90;;;;;;5048813;28;20039;-70
2023/03/12 00:14:43;;;;;;;10.80;6.43;;;-1.00;99.90;;;;;;5042959;28;20021;-70
2023/03/12 00:17:15;;;;;;;10.48;6.13;;;-1.00;99.90;;;;;;5056893;28;20032;-70
2023/03/12 00:19:44;;;;;;;9.18;5.97;;;-1.00;99.90;;;;;;5041565;28;20037;-70
2023/03/12 00:22:15;;;;;;;11.38;6.07;;;-1.00;99.90;;;;;;5053758;28;20021;-70
2023/03/12 00:24:42;;;;;;;10.75;5.80;;;-1.00;99.90;;;;;;5044566;28;20025;-70
2023/03/12 00:27:09;;;;;;;10.43;6.18;;;-1.00;99.90;;;;;;5062791;28;20047;-70
2023/03/12 00:29:41;;;;;;;9.77;5.90;;;-1.00;99.90;;;;;;5046368;28;20381;-71
2023/03/12 00:32:13;;;;;;;8.93;5.75;;;-0.90;99.90;;;;;;5057956;28;20052;-70
2023/03/12 00:34:54;;;;;;;8.23;5.47;;;-1.00;99.90;;;;;;5052277;28;20264;-70
2023/03/12 00:37:32;;;;;;;10.73;6.15;;;-1.00;99.90;;;;;;5057194;28;20024;-70
2023/03/12 00:40:00;;;;;;;11.57;6.15;;;-1.00;99.90;;;;;;5057814;28;20032;-71
2023/03/12 00:42:33;;;;;;;10.02;5.47;;;-1.00;99.90;;;;;;5042009;28;20056;-70
2023/03/12 00:45:01;;;;;;;10.38;5.85;;;-1.00;99.90;;;;;;5041425;28;20505;-70
2023/03/12 00:47:35;;;;;;;9.48;5.57;;;-1.00;99.90;;;;;;5049670;28;20044;-70
2023/03/12 00:50:01;;;;;;;12.23;5.90;;;-1.00;99.90;;;;;;5054816;28;20058;-70
2023/03/12 00:52:32;;;;;;;11.13;5.82;;;-1.00;99.90;;;;;;5052669;28;20045;-70
2023/03/12 00:55:02;;;;;;;9.98;6.13;;;-1.00;99.90;;;;;;5049478;28;20048;-70
2023/03/12 00:57:33;;;;;;;10.93;6.63;;;-1.00;99.90;;;;;;5059143;28;20108;-70
2023/03/12 01:00:05;;;;;;;14.57;6.78;;;-1.00;99.90;;;;;;5054516;28;20068;-70
2023/03/12 01:02:37;;;;;;;12.98;6.45;;;-1.00;99.90;;;;;;5042324;28;20048;-70
2023/03/12 01:05:06;;;;;;;10.43;5.72;;;-1.00;99.90;;;;;;5054690;28;20104;-70
2023/03/12 01:07:35;;;;;;;9.57;5.93;;;-1.00;99.90;;;;;;5066062;28;20108;-70
2023/03/12 01:10:09;;;;;;;10.57;6.15;;;-1.00;99.90;;;;;;5057769;28;20031;-70
2023/03/12 01:12:36;;;;;;;8.48;5.45;;;-0.90;99.90;;;;;;5054214;28;20124;-70
2023/03/12 01:15:09;;;;;;;10.02;6.13;;;-0.90;99.90;;;;;;5047511;28;20098;-70
2023/03/12 01:17:44;;;;;;;11.25;5.90;;;-0.90;99.90;;;;;;5061414;28;20036;-70
2023/03/12 01:20:11;;;;;;;10.35;5.97;;;-0.90;99.90;;;;;;5044556;28;20040;-70
2023/03/12 01:22:45;;;;;;;11.40;6.20;;;-0.90;99.90;;;;;;5053659;28;20503;-70
2023/03/12 01:25:13;;;;;;;11.98;6.53;;;-0.90;99.90;;;;;;5040242;28;20068;-70
2023/03/12 01:27:48;;;;;;;10.35;5.97;;;-0.90;99.90;;;;;;5048466;28;20029;-70
2023/03/12 01:30:15;;;;;;;12.30;6.53;;;-0.80;99.90;;;;;;5048076;28;20045;-70
2023/03/12 01:32:48;;;;;;;10.95;6.38;;;-0.80;99.90;;;;;;5050593;28;20032;-70
2023/03/12 01:35:17;;;;;;;7.43;4.88;;;-0.80;99.90;;;;;;5051941;28;20520;-70
2023/03/12 01:37:51;;;;;;;12.75;7.10;;;-0.80;99.90;;;;;;5037985;28;20583;-70
2023/03/12 01:40:24;;;;;;;12.50;6.93;;;-0.80;99.90;;;;;;5046649;28;20029;-70
2023/03/12 01:42:58;;;;;;;;;;;-0.80;99.90;;;;;;5051229;28;20017;-70
2023/03/12 01:46:02;;;;;;;13.00;6.22;;;-0.80;99.90;;;;;;5041198;28;19912;-70
2023/03/12 01:48:47;;;;;;;10.32;6.32;;;-0.80;99.90;;;;;;5034893;28;20130;-70
2023/03/12 01:51:15;;;;;;;12.40;6.55;;;-0.80;99.90;;;;;;5053956;28;20031;-70
2023/03/12 01:53:58;;;;;;;11.63;6.85;;;-0.90;99.90;;;;;;5062774;28;20052;-70
2023/03/12 01:56:33;;;;;;;11.95;7.05;;;-0.90;99.90;;;;;;5048990;28;20048;-70
2023/03/12 01:59:13;;;;;;;10.75;6.22;;;-0.90;99.90;;;;;;5044711;28;20509;-70
2023/03/12 02:01:45;;;;;;;9.45;6.22;;;-0.90;99.90;;;;;;5050017;28;20036;-70
2023/03/12 02:04:17;;;;;;;10.35;6.10;;;-0.90;99.90;;;;;;5060646;28;20043;-70
2023/03/12 02:07:07;;;;;;;12.48;6.22;;;-0.90;99.90;;;;;;5053644;28;20024;-70
2023/03/12 02:09:47;;;;;;;9.02;5.78;;;-0.90;99.90;;;;;;5041133;28;20032;-70
2023/03/12 02:12:22;;;;;;;11.32;5.78;;;-1.00;99.90;;;;;;5058628;28;20037;-70
2023/03/12 02:14:49;;;;;;;10.80;5.80;;;-0.90;99.90;;;;;;5060922;28;20484;-70
2023/03/12 02:17:24;;;;;;;11.15;5.50;;;-0.90;99.90;;;;;;5047151;28;20497;-70
2023/03/12 02:20:21;;;;;;;9.13;5.80;;;-0.90;99.90;;;;;;5058057;28;20032;-70
2023/03/12 02:23:08;;;;;;;9.18;5.72;;;-0.80;99.90;;;;;;5050110;28;20041;-70
2023/03/12 02:25:40;;;;;;;8.27;5.00;;;-0.90;99.90;;;;;;5051362;28;20024;-70
2023/03/12 02:28:20;;;;;;;9.52;5.88;;;-0.90;99.90;;;;;;5047212;28;20086;-70
2023/03/12 02:30:50;;;;;;;9.00;5.15;;;-0.90;99.90;;;;;;5054453;28;20025;-70
2023/03/12 02:33:24;;;;;;;8.07;5.35;;;-0.80;99.90;;;;;;5050465;28;20044;-70
2023/03/12 02:35:52;;;;;;;8.23;5.00;;;-0.80;99.90;;;;;;5056393;28;20078;-70
2023/03/12 02:38:48;;;;;;;11.00;5.28;;;-0.80;99.90;;;;;;5065720;28;20260;-70
2023/03/12 02:41:26;;;;;;;7.40;5.30;;;-0.80;99.90;;;;;;5053214;28;20047;-70
2023/03/12 02:44:33;;;;;;;8.10;5.05;;;-0.80;99.90;;;;;;5058123;28;20068;-70
2023/03/12 02:47:06;;;;;;;9.18;5.13;;;-0.90;99.90;;;;;;5049221;28;20039;-70
2023/03/12 02:49:33;;;;;;;9.30;4.80;;;-0.90;99.90;;;;;;5060977;28;20055;-70
2023/03/12 02:52:01;;;;;;;7.03;4.53;;;-0.90;99.90;;;;;;5047216;28;20029;-70
2023/03/12 02:54:35;;;;;;;9.75;5.55;;;-0.80;99.90;;;;;;5057009;28;20440;-70
2023/03/12 05:20:19;;;;;;;7.60;4.18;;;-0.80;99.90;;;;;;5015821;28;20049;-70
2023/03/12 05:22:46;;;;;;;8.27;4.95;;;-0.80;99.90;;;;;;5038371;28;20127;-70
2023/03/12 05:25:18;;;;;;;12.13;6.45;;;-0.80;99.90;;;;;;5043962;28;20111;-70
2023/03/12 05:27:57;;;;;;;16.33;6.97;;;-0.80;99.90;;;;;;5048676;28;20124;-70
2023/03/12 05:30:26;;;;;;;16.77;6.53;;;-0.80;99.90;;;;;;5040805;28;20067;-70
2023/03/12 05:32:57;;;;;;;11.88;6.07;;;-0.90;99.90;;;;;;5042536;28;20025;-70
2023/03/12 05:35:26;;;;;;;10.98;5.82;;;-0.90;99.90;;;;;;5034698;28;20033;-70
2023/03/12 05:38:03;;;;;;;9.27;5.30;;;-0.90;99.90;;;;;;5035677;28;20021;-70
2023/03/12 05:40:36;;;;;;;8.63;4.75;;;-0.90;99.90;;;;;;5039637;28;20037;-70
2023/03/12 05:43:09;;;;;;;8.05;4.30;;;-0.90;99.90;;;;;;5045259;28;20047;-70
2023/03/12 05:45:44;;;;;;;6.63;4.20;;;-0.90;99.90;;;;;;5047734;28;20033;-70
2023/03/12 05:48:10;;;;;;;6.68;4.10;;;-0.90;99.90;;;;;;5044711;28;20055;-70
2023/03/12 05:50:44;;;;;;;9.75;4.20;;;-0.80;99.90;;;;;;5042321;28;20028;-70
2023/03/12 05:53:13;;;;;;;6.70;3.83;;;-0.90;99.90;;;;;;5031626;28;20034;-70
2023/03/12 05:55:47;;;;;;;6.13;3.90;;;-0.90;99.90;;;;;;5041389;28;20025;-70
2023/03/12 05:58:21;;;;;;;6.93;3.90;;;-0.90;99.90;;;;;;5037973;28;20120;-70
2023/03/12 06:00:52;;;;;;;8.07;4.50;;;-0.80;99.90;;;;;;5050257;28;20767;-69
2023/03/12 06:03:27;;;;;;;6.72;4.53;;;-0.80;99.90;;;;;;5060182;28;20033;-70
2023/03/12 06:06:04;;;;;;;7.18;3.95;;;-0.70;99.90;;;;;;5053297;28;20397;-70
2023/03/12 06:08:35;;;;;;;9.02;4.60;;;-0.70;99.90;;;;;;5047197;28;20132;-70
2023/03/12 06:11:09;;;;;;;8.20;4.30;;;-0.60;99.90;;;;;;5058186;28;20021;-70
2023/03/12 06:13:43;;;;;;;8.15;4.82;;;-0.60;99.90;;;;;;5031799;28;20033;-70
2023/03/12 06:16:22;;;;;;;9.68;4.55;;;-0.60;99.90;;;;;;5054010;28;20684;-70
2023/03/12 06:18:57;;;;;;;8.38;4.10;;;-0.50;99.90;;;;;;5060024;28;20033;-70
2023/03/12 06:21:34;;;;;;;7.75;4.55;;;-0.50;99.90;;;;;;5060726;28;20269;-70
2023/03/12 06:24:07;;;;;;;8.82;4.80;;;-0.40;99.90;;;;;;5062991;28;20030;-70
2023/03/12 06:26:38;;;;;;;;;;;-0.40;99.90;;;;;;5046761;28;20508;-70
2023/03/12 06:29:09;;;;;;;15.60;6.72;;;-0.40;99.90;;;;;;5048324;28;19995;-70
2023/03/12 06:31:42;;;;;;;19.08;7.80;;;-0.40;99.90;;;;;;5056572;28;20416;-70
2023/03/12 06:34:12;;;;;;;;;;;-0.30;99.90;;;;;;5050857;28;20037;-70
2023/03/12 06:36:45;;;;;;;12.48;5.43;;;-0.30;99.90;;;;;;5058252;28;19908;-70
2023/03/12 06:39:14;;;;;;;13.05;5.78;;;-0.20;99.90;;;;;;5042510;28;20072;-70
2023/03/12 06:41:48;;;;;;;12.98;6.30;;;-0.20;99.90;;;;;;5049369;28;20098;-70
2023/03/12 06:44:22;;;;;;;10.88;6.10;;;-0.20;99.90;;;;;;5051944;28;20025;-70
2023/03/12 06:46:55;;;;;;;13.02;6.30;;;-0.10;99.90;;;;;;5063801;28;20086;-70
2023/03/12 06:49:32;;;;;;;11.57;6.00;;;-0.10;99.90;;;;;;5045842;28;20086;-70
2023/03/12 06:52:03;;;;;;;11.40;5.75;;;0.00;99.90;;;;;;5053200;28;20981;-71
2023/03/12 06:54:41;;;;;;;12.85;5.43;;;0.00;99.90;;;;;;5064152;28;20527;-70
2023/03/12 06:57:15;;;;;;;15.05;5.78;;;0.00;99.90;;;;;;5055333;28;20021;-70
2023/03/12 06:59:48;;;;;;;7.55;5.40;;;0.10;99.90;;;;;;5044060;28;20500;-70
2023/03/12 07:02:17;;;;;;;11.57;4.90;;;0.20;99.90;;;;;;5050217;28;20031;-70
2023/03/12 07:04:52;;;;;;;12.60;4.85;;;0.40;99.90;;;;;;5056604;28;20029;-70
2023/03/12 07:07:20;;;;;;;7.55;4.20;;;0.50;99.90;;;;;;5052400;28;20492;-69
2023/03/12 07:09:53;;;;;;;9.13;4.82;;;0.60;99.90;;;;;;5037564;28;20040;-70
2023/03/12 07:12:21;;;;;;;8.55;4.57;;;0.70;99.90;;;;;;5054438;28;20044;-70
2023/03/12 07:14:54;;;;;;;13.07;5.70;;;0.80;99.90;;;;;;5064897;28;20762;-70
2023/03/12 07:17:22;;;;;;;9.45;4.50;;;0.80;99.90;;;;;;5042470;28;20665;-70
2023/03/12 07:19:48;;;;;;;9.50;4.40;;;0.90;99.90;;;;;;4687799;28;9999837;-70
2023/03/12 07:22:15;;;;;;;9.55;4.55;;;0.90;99.90;;;;;;5047745;28;20341;-70
2023/03/12 07:24:42;;;;;;;9.15;4.50;;;1.00;99.90;;;;;;5056287;28;20091;-70
2023/03/12 07:27:09;;;;;;;10.90;5.70;;;1.00;99.90;;;;;;5055161;28;20029;-70
2023/03/12 07:29:36;;;;;;;10.90;5.32;;;1.10;99.90;;;;;;5046431;28;20029;-70
2023/03/12 07:32:02;;;;;;;12.30;7.03;;;1.10;99.90;;;;;;5033860;28;20035;-70
2023/03/12 07:34:28;;;;;;;12.50;7.50;;;1.10;99.90;;;;;;5035723;28;20033;-70
2023/03/12 07:36:55;;;;;;;9.85;5.28;;;1.10;99.90;;;;;;5027396;28;20026;-70
2023/03/12 07:39:21;;;;;;;9.02;4.85;;;1.10;99.90;;;;;;5024865;28;20040;-70
2023/03/12 07:41:49;;;;;;;9.00;5.32;;;1.10;99.90;;;;;;5037580;28;20029;-70
2023/03/12 07:44:14;;;;;;;12.77;6.35;;;1.10;99.90;;;;;;5037338;28;20048;-70
2023/03/12 07:46:41;;;;;;;8.30;5.88;;;1.10;99.90;;;;;;5026912;28;20029;-70
2023/03/12 07:49:07;;;;;;;9.98;5.90;;;1.10;99.90;;;;;;5028950;28;20025;-70
2023/03/12 07:51:34;;;;;;;10.10;5.20;;;1.10;99.90;;;;;;5031394;28;20044;-70
2023/03/12 07:54:00;;;;;;;9.80;5.03;;;1.20;99.90;;;;;;5049159;28;20028;-70
2023/03/12 07:56:27;;;;;;;9.63;5.43;;;1.20;99.90;;;;;;5035635;28;20032;-70
2023/03/12 07:58:53;;;;;;;9.82;5.40;;;1.30;99.90;;;;;;5041591;28;20512;-70
2023/03/12 08:01:19;;;;;;;10.23;5.50;;;1.40;99.90;;;;;;5033001;28;20029;-70
2023/03/12 08:03:45;;;;;;;10.48;5.18;;;1.40;99.90;;;;;;5042336;28;20506;-70
2023/03/12 08:06:12;;;;;;;8.45;5.18;;;1.40;99.90;;;;;;5047669;28;20036;-71
2023/03/12 08:08:40;;;;;;;9.90;6.63;;;1.50;99.90;;;;;;5033390;28;20486;-74
2023/03/12 08:11:07;;;;;;;9.32;5.38;;;1.60;99.90;;;;;;5042365;28;20036;-73
2023/03/12 08:13:34;;;;;;;11.77;5.03;;;1.70;99.90;;;;;;5046743;28;20147;-72
2023/03/12 08:16:00;;;;;;;9.93;5.63;;;1.80;99.90;;;;;;5042512;28;20033;-72
2023/03/12 08:18:27;;;;;;;10.52;5.70;;;1.80;99.90;;;;;;5043684;28;20032;-72
2023/03/12 08:20:54;;;;;;;9.75;4.95;;;1.80;99.90;;;;;;5038092;28;20045;-71
2023/03/12 08:23:21;;;;;;;11.23;5.32;;;1.80;99.90;;;;;;5058065;28;20081;-71
2023/03/12 08:25:48;;;;;;;6.65;5.00;;;1.70;99.90;;;;;;5041496;28;20516;-71
2023/03/12 08:28:15;;;;;;;10.38;4.65;;;1.70;99.90;;;;;;5037069;28;20033;-71
2023/03/12 08:30:46;;;;;;;9.23;4.68;;;1.70;99.90;;;;;;5039176;28;20112;-71
2023/03/12 08:33:12;;;;;;;12.43;4.47;;;1.80;99.90;;;;;;5050617;28;20029;-70
2023/03/12 08:35:39;;;;;;;9.35;5.55;;;1.80;99.90;;;;;;5041715;28;20397;-70
2023/03/12 08:38:09;;;;;;;13.77;6.05;;;1.80;99.90;;;;;;5038138;28;20060;-74
2023/03/12 08:40:40;;;;;;;8.82;5.47;;;1.70;99.90;;;;;;5034648;28;20036;-75
2023/03/12 08:43:11;;;;;;;12.00;5.55;;;1.70;99.90;;;;;;5046018;28;20357;-75
2023/03/12 08:45:45;;;;;;;11.25;5.40;;;1.80;99.90;;;;;;5057931;28;20028;-75
2023/03/12 08:48:17;;;;;;;10.45;5.45;;;1.80;99.90;;;;;;5055501;28;20378;-75
2023/03/12 08:50:51;;;;;;;8.52;5.22;;;2.00;99.90;;;;;;5062925;28;20036;-75
2023/03/12 08:53:23;;;;;;;7.88;4.82;;;2.00;99.90;;;;;;5054052;28;20028;-75
2023/03/12 08:55:59;;;;;;;11.85;5.30;;;2.00;99.90;;;;;;5063229;28;20074;-75
2023/03/12 08:58:29;;;;;;;7.70;4.95;;;2.00;99.90;;;;;;5055504;28;20040;-75
2023/03/12 09:01:01;;;;;;;11.30;5.93;;;2.10;99.90;;;;;;5050228;28;20863;-76
2023/03/12 09:03:33;;;;;;;9.57;5.93;;;2.20;99.90;;;;;;5042101;28;20029;-75
2023/03/12 09:06:15;;;;;;;;;;;2.30;99.90;;;;;;5045524;28;20028;-76
2023/03/12 09:08:42;;;;;;;15.13;6.50;;;2.40;99.90;;;;;;5046930;28;19961;-75
2023/03/12 09:11:17;;;;;;;10.95;6.40;;;2.40;99.90;;;;;;5049400;28;20036;-75
2023/03/12 09:13:43;;;;;;;13.88;6.82;;;2.40;99.90;;;;;;5054251;28;20036;-76
2023/03/12 09:16:09;;;;;;;10.60;6.00;;;2.40;99.90;;;;;;5043911;28;20391;-75
2023/03/12 09:18:35;;;;;;;9.68;5.50;;;2.40;99.90;;;;;;5049311;28;20472;-76
2023/03/12 09:21:10;;;;;;;15.30;6.10;;;2.40;99.90;;;;;;5061635;28;20111;-76
2023/03/12 09:23:45;;;;;;;13.45;5.82;;;2.30;99.90;;;;;;5047952;28;20044;-75
2023/03/12 09:26:17;;;;;;;12.32;5.60;;;2.30;99.90;;;;;;5046742;28;20050;-75
2023/03/12 09:28:49;;;;;;;17.30;7.38;;;2.40;99.90;;;;;;5037472;28;20037;-75
2023/03/12 09:31:20;;;;;;;11.75;6.20;;;2.40;99.90;;;;;;5048831;28;20034;-75
2023/03/12 09:33:49;;;;;;;10.70;5.35;;;2.50;99.90;;;;;;5046540;28;20497;-76
2023/03/12 09:36:19;;;;;;;11.93;6.00;;;2.60;99.90;;;;;;5046932;28;20037;-76
2023/03/12 09:38:49;;;;;;;17.55;7.35;;;2.70;99.90;;;;;;5047599;28;20116;-75
2023/03/12 09:41:27;;;;;;;12.23;6.57;;;2.70;99.90;;;;;;5047558;28;20031;-75
2023/03/12 09:44:05;;;;;;;12.13;5.55;;;2.70;99.90;;;;;;5058557;28;20024;-75
2023/03/12 09:46:51;;;;;;;10.55;6.18;;;2.80;99.90;;;;;;5057330;28;20029;-75
2023/03/12 09:49:39;;;;;;;16.13;5.25;;;2.70;99.90;;;;;;5047319;28;20227;-76
2023/03/12 09:52:39;;;;;;;17.48;4.85;;;2.70;99.90;;;;;;5049922;28;20279;-76
2023/03/12 09:55:11;;;;;;;8.77;4.00;;;2.80;99.90;;;;;;5061130;28;20024;-75
2023/03/12 09:57:46;;;;;;;9.77;3.83;;;2.80;99.90;;;;;;5039084;28;20031;-76
2023/03/12 10:00:23;;;;;;;6.18;3.85;;;2.80;99.90;;;;;;5044957;28;20454;-75
2023/03/12 10:02:52;;;;;;;10.70;3.67;;;2.80;99.90;;;;;;5038955;28;20262;-76
2023/03/12 10:05:46;;;;;;;8.45;3.20;;;2.70;99.90;;;;;;5043733;28;20036;-75
2023/03/12 10:08:41;;;;;;;11.50;3.42;;;2.70;99.90;;;;;;5060167;28;20040;-76
2023/03/12 10:11:24;;;;;;;10.43;4.13;;;2.60;99.90;;;;;;5052604;28;20029;-75
2023/03/12 10:14:19;;;;;;;7.05;4.28;;;2.50;99.90;;;;;;5045202;28;20048;-75
2023/03/12 10:17:16;;;;;;;9.93;4.10;;;2.50;99.90;;;;;;5052625;28;20037;-75
2023/03/12 10:20:06;;;;;;;10.25;4.50;;;2.50;99.90;;;;;;5057189;28;20047;-76
2023/03/12 10:23:00;;;;;;;8.90;4.10;;;2.50;99.90;;;;;;5061021;28;20045;-75
2023/03/12 10:25:41;;;;;;;9.52;4.07;;;2.40;99.90;;;;;;5060204;28;20027;-75
2023/03/12 10:28:33;;;;;;;7.90;4.13;;;2.50;99.90;;;;;;5039919;28;20043;-75
2023/03/12 10:31:13;;;;;;;12.15;4.47;;;2.50;99.90;;;;;;5047193;28;20036;-75
2023/03/12 10:33:49;;;;;;;12.90;4.53;;;2.50;99.90;;;;;;5046714;28;20048;-76
2023/03/12 10:36:35;;;;;;;10.18;4.85;;;2.50;99.90;;;;;;5055435;28;20093;-75
2023/03/12 10:39:16;;;;;;;8.90;3.95;;;2.40;99.90;;;;;;5062320;28;20400;-75
2023/03/12 10:41:45;;;;;;;12.38;4.25;;;2.40;99.90;;;;;;5044962;28;20028;-75
2023/03/12 10:44:22;;;;;;;11.77;4.10;;;2.40;99.90;;;;;;5049888;28;20036;-75
2023/03/12 10:46:58;;;;;;;10.13;4.00;;;2.40;99.90;;;;;;5059490;28;20423;-75
2023/03/12 10:49:29;;;;;;;10.60;4.03;;;2.40;99.90;;;;;;5056819;28;20254;-75
2023/03/12 10:52:18;;;;;;;9.95;4.28;;;2.40;99.90;;;;;;5053690;28;20195;-75
2023/03/12 10:54:53;;;;;;;10.20;4.63;;;2.40;99.90;;;;;;5046780;28;20040;-75
2023/03/12 10:57:40;;;;;;;8.57;4.25;;;2.40;99.90;;;;;;5047637;28;20035;-75
2023/03/12 11:00:16;;;;;;;13.05;4.75;;;2.50;99.90;;;;;;5054841;28;20092;-74
2023/03/12 11:02:55;;;;;;;10.60;4.78;;;2.50;99.90;;;;;;5061698;28;20108;-75
2023/03/12 11:05:28;;;;;;;12.38;4.63;;;2.50;99.90;;;;;;5046029;28;20043;-75
2023/03/12 11:08:06;;;;;;;9.45;4.50;;;2.50;99.90;;;;;;5043605;28;20024;-75
2023/03/12 11:10:44;;;;;;;54.70;15.45;;;2.50;99.90;;;;;;5053205;28;20028;-75
2023/03/12 11:13:39;;;;;;;13.18;5.55;;;2.40;99.90;;;;;;5051682;28;20489;-75
2023/03/12 11:16:23;;;;;;;10.95;6.10;;;2.40;99.90;;;;;;5042417;28;20039;-75
2023/03/12 11:19:08;;;;;;;13.05;5.75;;;2.40;99.90;;;;;;5056355;28;20036;-74
2023/03/12 11:21:41;;;;;;;14.77;6.50;;;2.40;99.90;;;;;;5055119;28;20033;-75
2023/03/12 11:24:15;;;;;;;13.10;5.90;;;2.40;99.90;;;;;;5057255;28;20085;-75
2023/03/12 11:26:48;;;;;;;9.15;4.88;;;2.40;99.90;;;;;;5045950;28;20022;-75
2023/03/12 11:29:31;;;;;;;10.40;4.43;;;2.40;99.90;;;;;;5061025;28;20036;-75
2023/03/12 11:32:12;;;;;;;10.80;6.18;;;2.40;99.90;;;;;;5043497;28;20034;-75
2023/03/12 11:34:48;;;;;;;11.88;6.15;;;2.40;99.90;;;;;;5061007;28;20036;-75
2023/03/12 11:37:28;;;;;;;12.35;6.00;;;2.40;99.90;;;;;;5054337;28;20029;-74
2023/03/12 11:40:13;;;;;;;12.77;6.22;;;2.30;99.90;;;;;;5054431;28;20060;-75
2023/03/12 11:42:55;;;;;;;19.77;7.35;;;2.30;99.90;;;;;;5052602;28;20400;-75
2023/03/12 11:45:22;;;;;;;17.42;9.18;;;2.30;99.90;;;;;;5061439;28;20036;-75
2023/03/12 11:48:03;;;;;;;20.60;10.02;;;2.30;99.90;;;;;;5041348;28;20052;-75
2023/03/12 11:50:48;;;;;;;18.25;9.10;;;2.30;99.90;;;;;;5052525;28;20062;-75
2023/03/12 11:53:54;;;;;;;13.32;8.60;;;2.40;99.90;;;;;;5046656;28;20033;-75
2023/03/12 11:56:31;;;;;;;18.45;7.90;;;2.50;99.90;;;;;;5038689;28;20491;-74
2023/03/12 11:59:33;;;;;;;25.02;9.70;;;2.50;99.90;;;;;;5046002;28;20025;-74
2023/03/12 12:02:41;;;;;;;26.92;10.70;;;2.60;99.90;;;;;;5054391;28;20059;-74
2023/03/12 12:05:43;;;;;;;12.65;8.05;;;2.70;99.90;;;;;;5040926;28;20411;-74
2023/03/12 12:08:36;;;;;;;17.30;9.25;;;2.70;99.90;;;;;;5050757;28;20055;-74
2023/03/12 12:11:20;;;;;;;12.18;6.45;;;2.80;99.90;;;;;;5055992;28;20390;-74
2023/03/12 12:14:10;;;;;;;14.68;8.68;;;2.90;99.90;;;;;;5044999;28;20063;-75
2023/03/12 12:17:09;;;;;;;15.73;8.68;;;2.90;99.90;;;;;;5059888;28;20067;-74
2023/03/12 12:19:50;;;;;;;16.23;9.32;;;2.90;99.90;;;;;;5050273;28;20079;-74
2023/03/12 12:22:49;;;;;;;14.68;8.50;;;2.90;99.90;;;;;;5051616;28;20532;-75
2023/03/12 12:25:22;;;;;;;15.02;9.30;;;3.00;99.90;;;;;;5054291;28;20040;-75
2023/03/12 12:28:20;;;;;;;16.90;9.90;;;3.00;99.90;;;;;;5048378;28;20029;-75
2023/03/12 12:30:53;;;;;;;18.50;8.90;;;3.00;99.90;;;;;;5057611;28;20375;-75
2023/03/12 12:33:40;;;;;;;17.65;9.32;;;3.10;99.90;;;;;;5049893;28;20029;-75
2023/03/12 12:36:12;;;;;;;13.10;8.50;;;3.10;99.90;;;;;;5059923;28;20359;-75
2023/03/12 12:39:00;;;;;;;14.38;8.80;;;3.20;99.90;;;;;;5050285;28;20436;-75
2023/03/12 12:41:35;;;;;;;16.13;9.65;;;3.30;99.90;;;;;;5037036;28;20113;-74
2023/03/12 12:44:15;;;;;;;16.85;11.85;;;3.30;99.90;;;;;;5049967;28;20078;-75
2023/03/12 12:46:50;;;;;;;14.63;10.25;;;3.50;99.90;;;;;;5040688;28;20121;-74
2023/03/12 12:49:29;;;;;;;18.75;10.40;;;3.60;99.90;;;;;;4356539;28;10000893;-75
2023/03/12 12:52:03;;;;;;;19.98;9.95;;;3.60;99.90;;;;;;5085151;28;20039;-76
2023/03/12 12:54:52;;;;;;;15.63;10.40;;;3.70;99.90;;;;;;5087568;28;20130;-76
2023/03/12 12:57:38;;;;;;;16.65;9.63;;;3.80;99.90;;;;;;5080092;28;20542;-76
2023/03/12 13:00:20;;;;;;;16.00;10.80;;;3.90;99.90;;;;;;5076196;28;20036;-76
2023/03/12 13:02:48;;;;;;;14.52;10.43;;;4.00;99.90;;;;;;5088107;28;20032;-76
2023/03/12 13:05:17;;;;;;;14.43;10.15;;;4.00;99.90;;;;;;5073212;28;20281;-76
2023/03/12 13:07:44;;;;;;;15.18;10.40;;;4.00;99.90;;;;;;5078844;28;20024;-76
2023/03/12 13:10:30;;;;;;;13.48;10.13;;;4.10;99.90;;;;;;5078397;28;20036;-76
2023/03/12 13:12:56;;;;;;;16.85;11.32;;;4.00;99.90;;;;;;5092323;28;20084;-77
2023/03/12 13:15:28;;;;;;;18.52;11.98;;;4.00;99.90;;;;;;5079166;27;20028;-77
2023/03/12 13:18:09;;;;;;;14.90;11.32;;;4.00;99.90;;;;;;5077682;28;20024;-75
2023/03/12 13:20:59;;;;;;;16.90;11.20;;;4.00;99.90;;;;;;5083825;28;20032;-75
2023/03/12 13:23:35;;;;;;;20.60;12.15;;;3.90;99.90;;;;;;5042597;28;20029;-75
2023/03/12 13:26:42;;;;;;;19.90;12.18;;;4.00;99.90;;;;;;5041724;28;20163;-75
2023/03/12 13:29:32;;;;;;;17.50;12.15;;;4.00;99.90;;;;;;5031091;28;20569;-75
2023/03/12 13:31:58;;;;;;;17.55;12.68;;;4.00;99.90;;;;;;5038337;28;20051;-74
2023/03/12 13:34:33;;;;;;;18.60;12.05;;;4.00;99.90;;;;;;5040216;28;20033;-74
2023/03/12 13:37:01;;;;;;;19.92;12.52;;;4.10;99.90;;;;;;5058395;28;20032;-74
2023/03/12 13:39:32;;;;;;;18.48;11.55;;;4.20;99.90;;;;;;5058913;28;20430;-74
2023/03/12 13:41:59;;;;;;;17.13;11.88;;;4.30;99.90;;;;;;5047497;28;20029;-75
2023/03/12 13:44:25;;;;;;;15.40;11.80;;;4.40;99.90;;;;;;5047127;28;20025;-75
2023/03/12 13:47:02;;;;;;;15.70;12.15;;;4.30;99.90;;;;;;5049433;28;20099;-75
2023/03/12 13:49:46;;;;;;;18.63;11.88;;;4.40;99.90;;;;;;5040717;28;20270;-75
2023/03/12 13:52:39;;;;;;;16.25;11.13;;;4.40;99.90;;;;;;5051591;28;20028;-76
2023/03/12 13:55:23;;;;;;;16.42;12.02;;;4.40;99.90;;;;;;5044775;28;20059;-76
2023/03/12 13:57:55;;;;;;;16.35;12.07;;;4.40;99.90;;;;;;5038499;28;20098;-75
2023/03/12 14:00:32;;;;;;;16.45;12.02;;;4.40;99.90;;;;;;5039463;28;20025;-75
2023/03/12 14:03:28;;;;;;;16.67;11.80;;;4.50;99.90;;;;;;5038257;28;20025;-77
2023/03/12 14:06:22;;;;;;;14.95;11.23;;;4.60;99.90;;;;;;5042044;28;20040;-76
2023/03/12 14:09:00;;;;;;;;;;;4.70;99.90;;;;;;5036585;28;20064;-76
2023/03/12 14:11:38;;;;;;;15.68;11.15;;;4.80;99.90;;;;;;5049744;28;19923;-76
2023/03/12 14:14:31;;;;;;;16.15;11.60;;;4.90;99.90;;;;;;5049705;28;20402;-77
2023/03/12 14:17:00;;;;;;;17.52;12.18;;;4.90;99.90;;;;;;5039167;28;20037;-75
2023/03/12 14:19:38;;;;;;;16.25;12.02;;;4.80;99.90;;;;;;5047471;28;20051;-76
2023/03/12 14:22:06;;;;;;;14.63;11.63;;;4.80;99.90;;;;;;5043567;28;20497;-77
2023/03/12 14:24:39;;;;;;;15.50;11.90;;;4.90;99.90;;;;;;5048106;28;20033;-78
2023/03/12 14:27:10;;;;;;;11.13;8.65;;;4.90;99.90;;;;;;5046323;28;20025;-77
2023/03/12 14:29:41;;;;;;;17.00;12.60;;;4.90;99.90;;;;;;5042027;28;20029;-75
2023/03/12 14:32:16;;;;;;;14.80;11.48;;;5.00;99.90;;;;;;5042740;28;20040;-75
2023/03/12 14:34:46;;;;;;;16.38;11.35;;;5.00;99.90;;;;;;5044218;28;20025;-75
2023/03/12 14:37:19;;;;;;;15.38;12.02;;;5.00;99.90;;;;;;5060203;28;20606;-74
2023/03/12 14:39:57;;;;;;;15.45;11.02;;;5.00;99.90;;;;;;5035130;28;20037;-75
2023/03/12 14:42:28;;;;;;;17.27;11.65;;;5.00;99.90;;;;;;5048065;28;20052;-76
2023/03/12 14:45:17;;;;;;;16.30;11.43;;;5.00;99.90;;;;;;5047152;28;20030;-76
2023/03/12 14:47:51;;;;;;;17.27;12.05;;;5.00;99.90;;;;;;5059599;28;20056;-76
2023/03/12 14:50:19;;;;;;;18.58;12.18;;;4.90;99.90;;;;;;5042736;28;20064;-75
2023/03/12 14:52:45;;;;;;;17.75;12.50;;;4.90;99.90;;;;;;5030083;28;20397;-75
2023/03/12 14:55:18;;;;;;;18.75;12.70;;;4.80;99.90;;;;;;5046347;28;20033;-75
2023/03/12 14:57:44;;;;;;;16.48;12.32;;;4.80;99.90;;;;;;5032413;28;20036;-76
2023/03/12 15:00:23;;;;;;;19.27;13.13;;;4.80;99.90;;;;;;5028118;28;20028;-76
2023/03/12 15:02:54;;;;;;;19.45;13.77;;;4.70;99.90;;;;;;5024491;28;20048;-75
2023/03/12 15:05:21;;;;;;;19.77;13.82;;;4.70;99.90;;;;;;5028579;28;20512;-74
2023/03/12 15:07:50;;;;;;;16.67;12.90;;;4.60;99.90;;;;;;5029452;28;20038;-77
2023/03/12 15:10:31;;;;;;;21.80;14.18;;;4.60;99.90;;;;;;5038034;28;20025;-77
2023/03/12 15:12:59;;;;;;;24.63;16.80;;;4.60;99.90;;;;;;5033331;28;20048;-76
2023/03/12 15:15:35;;;;;;;22.88;16.35;;;4.50;99.90;;;;;;5042583;28;20144;-76
2023/03/12 15:18:06;;;;;;;22.60;16.70;;;4.60;99.90;;;;;;5042728;28;20029;-76
2023/03/12 15:20:35;;;;;;;22.45;16.65;;;4.60;99.90;;;;;;5042973;28;20028;-75
2023/03/12 15:23:01;;;;;;;22.55;16.67;;;4.60;99.90;;;;;;5042435;28;20040;-76
2023/03/12 15:25:34;;;;;;;23.30;17.38;;;4.70;99.90;;;;;;5048970;28;20028;-76
2023/03/12 15:28:26;;;;;;;21.00;15.88;;;4.80;99.90;;;;;;5048737;28;20037;-76
2023/03/12 15:31:07;;;;;;;22.65;17.02;;;4.80;99.90;;;;;;5042210;28;20568;-77
2023/03/12 15:33:36;;;;;;;24.17;18.33;;;4.80;99.90;;;;;;5051048;28;20112;-76
2023/03/12 15:36:22;;;;;;;25.25;18.60;;;4.80;99.90;;;;;;5044852;28;20039;-75
2023/03/12 15:39:25;;;;;;;24.88;17.75;;;4.80;99.90;;;;;;5044203;28;20060;-76
2023/03/12 15:41:58;;;;;;;17.55;12.77;;;4.80;99.90;;;;;;5041081;28;20469;-75
2023/03/12 15:44:26;;;;;;;;;;;4.70;99.90;;;;;;5041773;28;20036;-75
2023/03/12 15:47:10;;;;;;;27.02;18.67;;;4.70;99.90;;;;;;5043607;28;19912;-76
2023/03/12 15:49:38;;;;;;;29.02;19.50;;;4.60;99.90;;;;;;5055915;28;20029;-75
2023/03/12 15:52:20;;;;;;;26.67;18.77;;;4.60;99.90;;;;;;5043949;28;20033;-76